createdAt,value
2022-09-10T00:01:32.452Z,99021.31
2022-09-10T00:04:01.475Z,98962.38
2022-09-10T00:06:31.711Z,98964.06
2022-09-10T00:09:01.290Z,98945.09
2022-09-10T00:11:32.444Z,98963.59
2022-09-10T00:14:04.570Z,99039.09
2022-09-10T00:16:32.778Z,98926.00
2022-09-10T00:19:01.336Z,98978.63
2022-09-10T00:21:30.181Z,98943.47
2022-09-10T00:23:57.820Z,98919.69
2022-09-10T00:26:38.302Z,98905.91
2022-09-10T00:29:09.743Z,98982.41
2022-09-10T00:31:37.544Z,98938.44
2022-09-10T00:34:06.803Z,98937.81
2022-09-10T00:36:40.264Z,98952.16
2022-09-10T00:39:12.877Z,98957.53
2022-09-10T00:41:42.995Z,98933.69
2022-09-10T00:44:39.689Z,98963.59
2022-09-10T00:47:26.811Z,98960.25
2022-09-10T00:50:26.398Z,98936.88
2022-09-10T00:52:59.606Z,99077.97
2022-09-10T00:55:27.939Z,98897.59
2022-09-10T00:58:00.546Z,98940.88
2022-09-10T01:00:28.068Z,98984.41
2022-09-10T01:02:55.458Z,98989.09
2022-09-10T01:05:23.424Z,98931.06
2022-09-10T01:07:50.572Z,98931.19
2022-09-10T01:10:26.376Z,98983.69
2022-09-10T01:13:14.907Z,98976.31
2022-09-10T01:16:22.687Z,98942.06
2022-09-10T01:19:41.549Z,98956.59
2022-09-10T01:23:05.573Z,98993.94
2022-09-10T01:26:06.975Z,98945.84
2022-09-10T01:28:57.277Z,98926.94
2022-09-10T01:31:56.303Z,98945.03
2022-09-10T01:34:36.711Z,98941.59
2022-09-10T01:37:17.713Z,98872.38
2022-09-10T01:39:47.330Z,98949.44
2022-09-10T01:42:15.949Z,98936.63
2022-09-10T01:44:51.835Z,98883.03
2022-09-10T01:47:52.511Z,98978.31
2022-09-10T01:50:22.804Z,98973.28
2022-09-10T01:53:14.223Z,98846.22
2022-09-10T01:56:04.548Z,98941.50
2022-09-10T01:58:41.516Z,98868.88
2022-09-10T02:01:40.599Z,98913.16
2022-09-10T02:04:14.537Z,98878.22
2022-09-10T02:06:48.048Z,98903.91
2022-09-10T02:09:17.001Z,98905.22
2022-09-10T02:11:54.685Z,98902.38
2022-09-10T02:14:40.515Z,98934.00
2022-09-10T02:17:20.311Z,98931.59
2022-09-10T02:19:51.720Z,98950.94
2022-09-10T02:22:20.622Z,98891.22
2022-09-10T02:24:47.853Z,98960.31
2022-09-10T02:27:15.009Z,98900.53
2022-09-10T02:29:42.652Z,98916.81
2022-09-10T02:32:10.271Z,98932.97
2022-09-10T02:34:37.395Z,98948.34
2022-09-10T02:37:04.577Z,98925.81
2022-09-10T02:39:35.823Z,98970.91
2022-09-10T02:42:03.220Z,98952.78
2022-09-10T02:44:30.315Z,98929.16
2022-09-10T02:46:58.160Z,98957.81
2022-09-10T02:49:25.247Z,98926.50
2022-09-10T02:51:52.541Z,98946.88
2022-09-10T02:54:19.956Z,98941.25
2022-09-10T02:56:50.044Z,98942.06
2022-09-10T02:59:20.255Z,98930.72
2022-09-10T03:01:48.331Z,98882.56
2022-09-10T03:04:16.283Z,98938.00
2022-09-10T03:06:43.764Z,98978.47
2022-09-10T03:09:11.195Z,98953.56
2022-09-10T03:11:40.691Z,98990.16
2022-09-10T03:14:10.867Z,98874.88
2022-09-10T03:16:37.965Z,98914.13
2022-09-10T03:19:06.931Z,98907.34
2022-09-10T03:21:35.422Z,98911.13
2022-09-10T03:24:05.164Z,98961.00
2022-09-10T03:26:32.354Z,98927.00
2022-09-10T03:28:59.816Z,98930.69
2022-09-10T03:31:31.225Z,98892.66
2022-09-10T03:33:59.881Z,98947.38
2022-09-10T03:36:31.787Z,98951.25
2022-09-10T03:38:59.621Z,98969.84
2022-09-10T03:41:28.666Z,98955.59
2022-09-10T03:43:58.434Z,98880.94
2022-09-10T03:46:26.946Z,98966.38
2022-09-10T03:48:57.119Z,98942.94
2022-09-10T03:51:27.620Z,98966.94
2022-09-10T03:53:56.074Z,98973.63
2022-09-10T03:56:23.146Z,98972.75
2022-09-10T03:58:51.109Z,98953.34
2022-09-10T04:01:19.327Z,98925.81
2022-09-10T04:03:48.718Z,98978.75
2022-09-10T04:06:16.602Z,98976.25
2022-09-10T04:08:44.226Z,98978.84
2022-09-10T04:11:14.148Z,98946.88
2022-09-10T04:13:41.936Z,98948.25
2022-09-10T04:16:12.178Z,98960.75
2022-09-10T04:18:40.477Z,98945.41
2022-09-10T04:21:07.643Z,98986.34
2022-09-10T04:23:35.544Z,98984.59
2022-09-10T04:26:18.864Z,98929.66
2022-09-10T04:28:48.692Z,98958.25
2022-09-10T04:31:18.232Z,98935.34
2022-09-10T04:33:46.435Z,98982.50
2022-09-10T04:36:15.306Z,98897.91
2022-09-10T04:38:44.113Z,98947.88
2022-09-10T04:41:15.738Z,98939.22
2022-09-10T04:43:43.630Z,98961.84
2022-09-10T04:46:10.886Z,98943.53
2022-09-10T04:48:40.920Z,98921.25
2022-09-10T04:51:17.253Z,98940.00
2022-09-10T04:53:49.969Z,98933.75
2022-09-10T04:56:17.758Z,98930.22
2022-09-10T04:58:46.442Z,98943.72
2022-09-10T05:01:14.236Z,98965.03
2022-09-10T05:03:43.400Z,98933.47
2022-09-10T05:06:11.480Z,98944.03
2022-09-10T05:08:38.852Z,98969.94
2022-09-10T05:11:06.518Z,98929.59
2022-09-10T05:13:33.890Z,98946.84
2022-09-10T05:16:02.098Z,98912.50
2022-09-10T05:18:31.997Z,98990.22
2022-09-10T05:20:59.520Z,98944.72
2022-09-10T05:23:27.974Z,98990.88
2022-09-10T05:25:56.988Z,98944.31
2022-09-10T05:28:24.759Z,98969.69
2022-09-10T05:30:53.402Z,98928.63
2022-09-10T05:33:23.494Z,98981.59
2022-09-10T05:35:53.484Z,98913.66
2022-09-10T05:38:23.684Z,98920.91
2022-09-10T05:40:51.025Z,98967.22
2022-09-10T05:43:18.317Z,98948.00
2022-09-10T05:45:46.153Z,98981.13
2022-09-10T05:48:14.559Z,98943.66
2022-09-10T05:50:41.782Z,98982.69
2022-09-10T05:53:09.977Z,98974.63
2022-09-10T05:55:38.007Z,98970.00
2022-09-10T05:58:06.944Z,98954.97
2022-09-10T06:00:36.717Z,98972.16
2022-09-10T06:03:05.500Z,98990.63
2022-09-10T06:05:40.414Z,99010.28
2022-09-10T06:08:08.950Z,99020.09
2022-09-10T06:10:39.266Z,99002.75
2022-09-10T06:13:07.284Z,98999.22
2022-09-10T06:15:36.164Z,98984.94
2022-09-10T06:18:04.330Z,98955.81
2022-09-10T06:20:32.357Z,98995.97
2022-09-10T06:23:00.325Z,99026.25
2022-09-10T06:25:28.515Z,99004.63
2022-09-10T06:27:56.658Z,99003.91
2022-09-10T06:30:23.877Z,99011.81
2022-09-10T06:32:50.907Z,99021.28
2022-09-10T06:35:18.957Z,99028.47
2022-09-10T06:40:15.571Z,98973.19
2022-09-10T06:42:43.747Z,99005.41
2022-09-10T06:45:13.622Z,99051.75
2022-09-10T06:50:59.274Z,99047.81
2022-09-10T06:53:33.650Z,99028.53
2022-09-10T06:56:03.528Z,99063.34
2022-09-10T06:58:36.741Z,99023.88
2022-09-10T07:01:17.762Z,99057.88
2022-09-10T07:03:56.475Z,99005.03
2022-09-10T07:06:26.848Z,99041.78
2022-09-10T07:08:59.582Z,99057.81
2022-09-10T07:11:32.525Z,99058.59
2022-09-10T07:14:01.523Z,99070.06
2022-09-10T07:16:34.659Z,99078.03
2022-09-10T07:19:01.599Z,99102.81
2022-09-10T07:21:37.892Z,99067.19
2022-09-10T07:24:10.496Z,99093.31
2022-09-10T07:26:38.619Z,99066.56
2022-09-10T07:29:05.941Z,99087.25
2022-09-10T07:31:36.711Z,99030.47
2022-09-10T07:34:08.663Z,99114.06
2022-09-10T07:36:36.694Z,99110.91
2022-09-10T07:39:05.161Z,99087.28
2022-09-10T07:41:35.385Z,99103.09
2022-09-10T07:44:05.013Z,99094.09
2022-09-10T07:46:38.848Z,99108.13
2022-09-10T07:49:10.004Z,99099.59
2022-09-10T07:51:39.373Z,99104.69
2022-09-10T07:54:07.143Z,99136.03
2022-09-10T07:56:38.958Z,99139.38
2022-09-10T07:59:08.441Z,99117.38
2022-09-10T08:02:01.497Z,99134.53
2022-09-10T08:04:36.823Z,99133.88
2022-09-10T08:07:07.455Z,99094.47
2022-09-10T08:09:37.647Z,99154.38
2022-09-10T08:12:07.626Z,99153.59
2022-09-10T08:14:38.195Z,99164.56
2022-09-10T08:17:05.758Z,99131.47
2022-09-10T08:19:38.931Z,99163.41
2022-09-10T08:22:09.172Z,99181.19
2022-09-10T08:24:43.359Z,99133.16
2022-09-10T08:27:11.688Z,99153.25
2022-09-10T08:29:39.767Z,99153.47
2022-09-10T08:32:12.974Z,99131.91
2022-09-10T08:34:41.053Z,99150.47
2022-09-10T08:37:10.559Z,99143.41
2022-09-10T08:39:38.891Z,99154.50
2022-09-10T08:42:20.638Z,99152.56
2022-09-10T08:45:16.033Z,99151.84
2022-09-10T08:47:55.851Z,99153.84
2022-09-10T08:50:37.986Z,99177.50
2022-09-10T08:53:23.113Z,99164.06
2022-09-10T08:55:51.781Z,99144.22
2022-09-10T08:58:44.901Z,99168.69
2022-09-10T09:01:25.042Z,99193.25
2022-09-10T09:03:55.261Z,99174.16
2022-09-10T09:06:41.187Z,99178.88
2022-09-10T09:09:15.479Z,99195.16
2022-09-10T09:11:59.652Z,99179.75
2022-09-10T09:14:54.854Z,99204.25
2022-09-10T09:17:51.450Z,99189.22
2022-09-10T09:20:46.685Z,99215.16
2022-09-10T09:24:11.573Z,99193.50
2022-09-10T09:26:44.919Z,99215.59
2022-09-10T09:29:24.280Z,99222.34
2022-09-10T09:31:57.952Z,99217.94
2022-09-10T09:34:50.593Z,99175.72
2022-09-10T09:37:31.281Z,99233.69
2022-09-10T09:40:31.576Z,99235.72
2022-09-10T09:43:32.418Z,99245.06
2022-09-10T09:46:02.126Z,99259.22
2022-09-10T09:48:39.501Z,99253.56
2022-09-10T09:51:13.388Z,99246.06
2022-09-10T09:53:43.146Z,99244.00
2022-09-10T09:56:23.989Z,99242.50
2022-09-10T09:58:52.204Z,99236.53
2022-09-10T10:01:23.824Z,99228.72
2022-09-10T10:03:54.400Z,99240.59
2022-09-10T10:06:46.907Z,99235.13
2022-09-10T10:09:23.543Z,99253.41
2022-09-10T10:12:06.433Z,99266.31
2022-09-10T10:14:44.178Z,99250.78
2022-09-10T10:17:40.410Z,99232.63
2022-09-10T10:20:16.269Z,99244.38
2022-09-10T10:22:45.977Z,99229.47
2022-09-10T10:25:41.379Z,99211.53
2022-09-10T10:28:25.644Z,99223.50
2022-09-10T10:30:56.691Z,99258.13
2022-09-10T10:33:31.563Z,99211.84
2022-09-10T10:36:06.969Z,99226.16
2022-09-10T10:39:06.795Z,99234.75
2022-09-10T10:42:16.424Z,99208.19
2022-09-10T10:45:37.512Z,99237.75
2022-09-10T10:48:21.953Z,99215.78
2022-09-10T10:51:05.210Z,99224.16
2022-09-10T10:54:19.032Z,99242.81
2022-09-10T10:56:59.949Z,99205.25
2022-09-10T11:00:05.322Z,99195.22
2022-09-10T11:02:58.181Z,99223.13
2022-09-10T11:05:42.263Z,99240.66
2022-09-10T11:08:20.851Z,99190.53
2022-09-10T11:11:08.995Z,99214.41
2022-09-10T11:13:55.917Z,99191.59
2022-09-10T11:16:55.320Z,99203.59
2022-09-10T11:19:35.699Z,99193.50
2022-09-10T11:22:31.947Z,99207.53
2022-09-10T11:25:12.622Z,99240.63
2022-09-10T11:27:46.913Z,99245.34
2022-09-10T11:30:16.986Z,99203.25
2022-09-10T11:33:01.287Z,99265.31
2022-09-10T11:36:07.379Z,99274.66
2022-09-10T11:39:06.981Z,99224.03
2022-09-10T11:41:35.877Z,99273.50
2022-09-10T11:44:37.407Z,99226.50
2022-09-10T11:47:19.077Z,99257.94
2022-09-10T11:50:04.265Z,99239.25
2022-09-10T11:52:34.878Z,99257.41
2022-09-10T11:55:04.365Z,99247.44
2022-09-10T11:58:26.266Z,99229.25
2022-09-10T12:01:14.808Z,99223.50
2022-09-10T12:03:55.033Z,99276.91
2022-09-10T12:06:53.994Z,99267.50
2022-09-10T12:10:00.138Z,99237.16
2022-09-10T12:12:50.396Z,99236.84
2022-09-10T12:15:37.203Z,99255.47
2022-09-10T12:18:17.123Z,99247.63
2022-09-10T12:21:02.762Z,99229.78
2022-09-10T12:23:39.950Z,99225.13
2022-09-10T12:26:20.810Z,99198.19
2022-09-10T12:28:53.724Z,99232.28
2022-09-10T12:31:22.431Z,99211.72
2022-09-10T12:33:51.105Z,99223.66
2022-09-10T12:36:27.183Z,99266.97
2022-09-10T12:39:27.334Z,99234.53
2022-09-10T12:42:01.954Z,99215.19
2022-09-10T12:44:35.081Z,99186.03
2022-09-10T12:47:17.202Z,99205.59
2022-09-10T12:50:00.906Z,99220.44
2022-09-10T12:52:51.667Z,99203.97
2022-09-10T12:56:02.113Z,99200.19
2022-09-10T12:59:15.253Z,99167.72
2022-09-10T13:01:48.013Z,99199.03
2022-09-10T13:04:35.995Z,99212.13
2022-09-10T13:07:27.899Z,99189.47
2022-09-10T13:10:05.906Z,99236.72
2022-09-10T13:12:35.764Z,99171.78
2022-09-10T13:15:05.032Z,99121.69
2022-09-10T13:17:51.254Z,99158.97
2022-09-10T13:20:21.232Z,99179.72
2022-09-10T13:23:04.101Z,99119.22
2022-09-10T13:25:45.103Z,99129.97
2022-09-10T13:28:30.505Z,99126.25
2022-09-10T13:31:14.469Z,99185.78
2022-09-10T13:33:51.187Z,99154.00
2022-09-10T13:37:02.950Z,99176.84
2022-09-10T13:40:09.136Z,99153.28
2022-09-10T13:43:12.156Z,99106.84
2022-09-10T13:45:57.117Z,99129.66
2022-09-10T13:48:38.029Z,99144.38
2022-09-10T13:51:54.238Z,99125.59
2022-09-10T13:54:33.275Z,99153.13
2022-09-10T13:57:30.054Z,99131.69
2022-09-10T14:00:12.867Z,99069.44
2022-09-10T14:02:41.897Z,99126.22
2022-09-10T14:05:33.899Z,99083.31
2022-09-10T14:08:26.733Z,99095.88
2022-09-10T14:11:07.180Z,99066.34
2022-09-10T14:13:55.624Z,99129.66
2022-09-10T14:16:41.941Z,99126.53
2022-09-10T14:19:34.379Z,99130.75
2022-09-10T14:22:06.213Z,99114.34
2022-09-10T14:24:52.645Z,99076.28
2022-09-10T14:27:33.452Z,99136.59
2022-09-10T14:30:27.172Z,99100.06
2022-09-10T14:32:54.405Z,99085.00
2022-09-10T14:35:43.145Z,99071.59
2022-09-10T14:38:34.191Z,99124.47
2022-09-10T14:41:17.282Z,99126.38
2022-09-10T14:43:44.616Z,99083.88
2022-09-10T14:46:46.834Z,99078.78
2022-09-10T14:49:17.293Z,99034.09
2022-09-10T14:51:46.648Z,99028.16
2022-09-10T14:54:15.259Z,99000.00
2022-09-10T14:56:47.233Z,99036.28
2022-09-10T14:59:33.688Z,99012.72
2022-09-10T15:02:05.791Z,99079.81
2022-09-10T15:04:32.716Z,99087.97
2022-09-10T15:07:00.603Z,99117.81
2022-09-10T15:09:29.165Z,99008.72
2022-09-10T15:12:19.665Z,99046.56
2022-09-10T15:14:46.622Z,99052.78
2022-09-10T15:17:15.332Z,99061.28
2022-09-10T15:19:43.096Z,99057.47
2022-09-10T15:22:27.553Z,99092.22
2022-09-10T15:25:11.612Z,99121.25
2022-09-10T15:27:39.049Z,99134.03
2022-09-10T15:30:07.361Z,99141.06
2022-09-10T15:32:34.499Z,99107.63
2022-09-10T15:35:01.599Z,99070.84
2022-09-10T15:37:28.517Z,99100.13
2022-09-10T15:39:57.525Z,99087.94
2022-09-10T15:42:24.612Z,99157.63
2022-09-10T15:44:51.563Z,99143.59
2022-09-10T15:47:18.498Z,99112.06
2022-09-10T15:49:45.407Z,99143.78
2022-09-10T15:52:12.610Z,99109.09
2022-09-10T15:54:39.526Z,99085.97
2022-09-10T15:57:06.794Z,99080.50
2022-09-10T15:59:33.829Z,99157.00
2022-09-10T16:02:01.065Z,99132.41
2022-09-10T16:04:30.693Z,99031.00
2022-09-10T16:07:00.765Z,99124.59
2022-09-10T16:09:27.786Z,99133.78
2022-09-10T16:11:54.900Z,99114.19
2022-09-10T16:14:22.701Z,99055.84
2022-09-10T16:16:51.037Z,99054.50
2022-09-10T16:19:18.204Z,99121.44
2022-09-10T16:21:46.594Z,99145.75
2022-09-10T16:24:13.674Z,99127.09
2022-09-10T16:26:43.600Z,99159.53
2022-09-10T16:29:18.032Z,99131.84
2022-09-10T16:31:45.993Z,99146.84
2022-09-10T16:34:17.660Z,99130.53
2022-09-10T16:36:48.727Z,99089.94
2022-09-10T16:39:16.917Z,99117.56
2022-09-10T16:41:49.143Z,99135.72
2022-09-10T16:44:18.317Z,99143.00
2022-09-10T16:46:47.276Z,99146.84
2022-09-10T16:49:18.447Z,99173.63
2022-09-10T16:51:48.969Z,99080.53
2022-09-10T16:54:19.525Z,99164.69
2022-09-10T16:56:48.767Z,99130.25
2022-09-10T16:59:22.220Z,99105.81
2022-09-10T17:01:51.648Z,99158.44
2022-09-10T17:04:27.790Z,99175.38
2022-09-10T17:06:56.977Z,99171.31
2022-09-10T17:09:25.073Z,99191.44
2022-09-10T17:11:52.416Z,99168.84
2022-09-10T17:14:19.963Z,99185.97
2022-09-10T17:16:48.111Z,99159.53
2022-09-10T17:19:20.331Z,99142.28
2022-09-10T17:21:51.362Z,99199.31
2022-09-10T17:24:22.800Z,99110.34
2022-09-10T17:26:51.204Z,99157.63
2022-09-10T17:29:22.580Z,99165.84
2022-09-10T17:31:55.139Z,99182.69
2022-09-10T17:34:24.577Z,99105.28
2022-09-10T17:36:51.954Z,99218.91
2022-09-10T17:39:19.077Z,99117.84
2022-09-10T17:41:46.404Z,99173.81
2022-09-10T17:44:14.338Z,99179.13
2022-09-10T17:46:42.828Z,99228.06
2022-09-10T17:49:14.039Z,99214.16
2022-09-10T17:51:41.939Z,99208.22
2022-09-10T17:54:09.331Z,99121.56
2022-09-10T17:56:38.125Z,99196.44
2022-09-10T17:59:06.279Z,99129.16
2022-09-10T18:01:38.755Z,99183.00
2022-09-10T18:04:14.466Z,99166.50
2022-09-10T18:06:42.005Z,99152.22
2022-09-10T18:09:09.679Z,99125.47
2022-09-10T18:11:39.958Z,99171.22
2022-09-10T18:14:07.385Z,99162.75
2022-09-10T18:16:36.495Z,99212.38
2022-09-10T18:19:13.813Z,99195.53
2022-09-10T18:21:42.694Z,99180.78
2022-09-10T18:24:21.052Z,99215.31
2022-09-10T18:26:50.090Z,99220.38
2022-09-10T18:29:20.004Z,99224.72
2022-09-10T18:31:53.866Z,99190.06
2022-09-10T18:34:24.231Z,99191.75
2022-09-10T18:36:54.557Z,99172.91
2022-09-10T18:39:23.816Z,99207.00
2022-09-10T18:41:51.607Z,99218.41
2022-09-10T18:44:25.588Z,99200.69
2022-09-10T18:46:53.461Z,99257.72
2022-09-10T18:49:24.406Z,99264.56
2022-09-10T18:51:54.079Z,99227.81
2022-09-10T18:54:23.246Z,99268.53
2022-09-10T18:56:51.061Z,99238.13
2022-09-10T18:59:20.437Z,99271.69
2022-09-10T19:01:49.524Z,99241.16
2022-09-10T19:04:21.814Z,99233.88
2022-09-10T19:06:49.777Z,99240.19
2022-09-10T19:09:28.956Z,99255.13
2022-09-10T19:11:58.483Z,99227.63
2022-09-10T19:14:31.123Z,99236.44
2022-09-10T19:17:00.534Z,99265.53
2022-09-10T19:19:35.534Z,99244.53
2022-09-10T19:22:07.165Z,99273.28
2022-09-10T19:24:54.030Z,99232.19
2022-09-10T19:27:22.299Z,99258.44
2022-09-10T19:29:50.243Z,99260.56
2022-09-10T19:32:20.015Z,99311.75
2022-09-10T19:34:50.767Z,99222.06
2022-09-10T19:37:18.320Z,99231.13
2022-09-10T19:39:45.459Z,99229.66
2022-09-10T19:42:12.776Z,99247.16
2022-09-10T19:44:39.754Z,99271.78
2022-09-10T19:47:06.997Z,99266.94
2022-09-10T19:49:34.410Z,99242.97
2022-09-10T19:52:01.949Z,99249.56
2022-09-10T19:54:29.839Z,99273.41
2022-09-10T19:56:56.829Z,99236.19
2022-09-10T19:59:24.037Z,99258.03
2022-09-10T20:01:51.093Z,99247.44
2022-09-10T20:04:18.086Z,99262.53
2022-09-10T20:06:50.314Z,99233.38
2022-09-10T20:09:17.394Z,99228.69
2022-09-10T20:11:47.407Z,99232.19
2022-09-10T20:14:15.883Z,99253.13
2022-09-10T20:16:45.283Z,99284.78
2022-09-10T20:19:18.455Z,99271.34
2022-09-10T20:21:46.477Z,99271.34
2022-09-10T20:24:14.464Z,99246.84
2022-09-10T20:26:43.692Z,99246.09
2022-09-10T20:29:17.936Z,99233.38
2022-09-10T20:31:47.053Z,99203.75
2022-09-10T20:34:18.034Z,99235.13
2022-09-10T20:36:45.690Z,99241.00
2022-09-10T20:39:15.939Z,99231.25
2022-09-10T20:41:43.821Z,99242.31
2022-09-10T20:44:14.859Z,99287.34
2022-09-10T20:46:43.003Z,99256.94
2022-09-10T20:49:12.534Z,99236.34
2022-09-10T20:51:40.570Z,99270.81
2022-09-10T20:54:12.861Z,99279.91
2022-09-10T20:56:39.998Z,99265.66
2022-09-10T20:59:06.991Z,99281.53
2022-09-10T21:01:34.160Z,99299.22
2022-09-10T21:04:04.015Z,99255.66
2022-09-10T21:06:33.925Z,99253.34
2022-09-10T21:09:02.627Z,99317.47
2022-09-10T21:11:33.203Z,99263.47
2022-09-10T21:14:02.845Z,99260.41
2022-09-10T21:16:36.823Z,99278.19
2022-09-10T21:19:13.224Z,99275.44
2022-09-10T21:21:41.867Z,99228.81
2022-09-10T21:24:15.830Z,99241.06
2022-09-10T21:26:43.609Z,99237.84
2022-09-10T21:29:17.666Z,99261.63
2022-09-10T21:31:45.644Z,99298.41
2022-09-10T21:34:13.990Z,99297.59
2022-09-10T21:36:42.942Z,99265.19
2022-09-10T21:39:16.397Z,99215.34
2022-09-10T21:41:47.091Z,99244.66
2022-09-10T21:44:21.414Z,99291.78
2022-09-10T21:46:50.006Z,99272.38
2022-09-10T21:49:17.762Z,99252.66
2022-09-10T21:51:45.201Z,99301.81
2022-09-10T21:54:20.811Z,99293.78
2022-09-10T21:56:52.199Z,99275.59
2022-09-10T21:59:20.415Z,99270.81
2022-09-10T22:01:47.822Z,99266.47
2022-09-10T22:04:22.155Z,99282.31
2022-09-10T22:06:50.172Z,99305.66
2022-09-10T22:09:17.736Z,99257.41
2022-09-10T22:11:50.220Z,99260.66
2022-09-10T22:14:24.037Z,99279.59
2022-09-10T22:16:52.343Z,99354.00
2022-09-10T22:19:25.821Z,99277.25
2022-09-10T22:21:57.492Z,99240.44
2022-09-10T22:24:25.961Z,99225.78
2022-09-10T22:26:53.363Z,99287.88
2022-09-10T22:29:20.743Z,99319.13
2022-09-10T22:31:49.717Z,99314.38
2022-09-10T22:34:18.058Z,99293.75
2022-09-10T22:36:47.468Z,99274.03
2022-09-10T22:39:17.932Z,99294.66
2022-09-10T22:41:45.556Z,99317.94
2022-09-10T22:44:12.930Z,99256.66
2022-09-10T22:46:41.044Z,99276.44
2022-09-10T22:49:08.669Z,99289.09
2022-09-10T22:51:39.853Z,99302.13
2022-09-10T22:54:08.861Z,99279.16
2022-09-10T22:56:36.435Z,99281.94
2022-09-10T22:59:04.481Z,99253.13
2022-09-10T23:01:36.582Z,99293.03
2022-09-10T23:04:06.321Z,99309.66
2022-09-10T23:06:36.606Z,99282.34
2022-09-10T23:09:13.123Z,99293.84
2022-09-10T23:11:41.674Z,99319.19
2022-09-10T23:14:13.677Z,99275.66
2022-09-10T23:16:43.601Z,99287.53
2022-09-10T23:19:21.354Z,99307.34
2022-09-10T23:21:52.191Z,99321.59
2022-09-10T23:24:24.701Z,99325.47
2022-09-10T23:26:52.104Z,99329.41
2022-09-10T23:29:20.175Z,99332.97
2022-09-10T23:31:47.866Z,99299.34
2022-09-10T23:34:18.326Z,99303.78
2022-09-10T23:36:48.064Z,99257.47
2022-09-10T23:39:20.204Z,99289.88
2022-09-10T23:41:49.284Z,99296.97
2022-09-10T23:44:17.390Z,99285.59
2022-09-10T23:46:44.939Z,99282.03
2022-09-10T23:49:12.671Z,99322.44
2022-09-10T23:51:40.058Z,99308.09
2022-09-10T23:54:08.806Z,99299.41
2022-09-10T23:56:35.780Z,99333.44
2022-09-10T23:59:03.717Z,99308.81
